Información del aeropuerto SBTT

Información de pista
Pista 12 Longitud 7054 ft Anchura 98 ft
Elevación 0 ft Umbral 0 ft Rumbo 0
Pista 30 Longitud 7054 ft Anchura 98 ft
Elevación 0 ft Umbral 0 ft Rumbo 0
Frecuencias del aeropuerto
Tipo AFIS Nombre RDO Frecuencia 125.9 MHZ
Radioayudas del aeropuerto
Tipo NDB Nombre Tabatinga Frecuencia 230 KHZ
Información meteorológica del aeropuerto y NOTAM
ADDS - METARS form results

(0820 UTC 19 April 2021)
Data provider http://aviationweather.gov/metar/data/
 
Forecast for: SBTT (TABATINGA INTL A, BR)
Text: TAF SBTT 190300Z 1906/2006 29005KT 9999 SCT015 TN24/1913Z TX29/1918Z
Forecast period: 0600 UTC 19 April 2021 to 0600 UTC 20 April 2021
Forecast type: FROM: standard forecast or significant change
Winds: from the WNW (290 degrees) at 6 MPH (5 knots; 2.6 m/s)
Visibility: 6 or more miles (10+ km)
Ceiling: at least 12,000 feet AGL
Clouds: scattered clouds at 1500 feet AGL
Weather: no significant weather forecast for this period
Text: PROB30 1913/1915 5000 RA BKN008 RMK PHD
Forecast period: 1300 to 1500 UTC 19 April 2021
Forecast type: PROBABLE: 30 percent likelihood of the following during this time
Visibility: 3 miles (5 km)
Ceiling: 800 feet AGL
Clouds: broken clouds at 800 feet AGL
Weather: RA  (moderate rain)